sensor_id;sensor_type;location;lat;lon;timestamp;P1;durP1;ratioP1;P2;durP2;ratioP2
8458;SDS011;4266;48.816;9.154;2023-08-30T00:01:24;10.67;;;9.70;;
8458;SDS011;4266;48.816;9.154;2023-08-30T00:03:50;10.87;;;9.73;;
8458;SDS011;4266;48.816;9.154;2023-08-30T00:06:16;10.83;;;9.73;;
8458;SDS011;4266;48.816;9.154;2023-08-30T00:08:42;14.63;;;10.27;;
8458;SDS011;4266;48.816;9.154;2023-08-30T00:11:08;11.03;;;10.03;;
8458;SDS011;4266;48.816;9.154;2023-08-30T00:13:34;12.63;;;10.37;;
8458;SDS011;4266;48.816;9.154;2023-08-30T00:16:00;11.50;;;10.60;;
8458;SDS011;4266;48.816;9.154;2023-08-30T00:18:26;11.60;;;10.53;;
8458;SDS011;4266;48.816;9.154;2023-08-30T00:20:52;10.70;;;9.87;;
8458;SDS011;4266;48.816;9.154;2023-08-30T00:23:25;14.20;;;10.17;;
8458;SDS011;4266;48.816;9.154;2023-08-30T00:25:51;10.13;;;9.33;;
8458;SDS011;4266;48.816;9.154;2023-08-30T00:28:16;10.87;;;9.87;;
8458;SDS011;4266;48.816;9.154;2023-08-30T00:30:42;9.30;;;8.63;;
8458;SDS011;4266;48.816;9.154;2023-08-30T00:33:08;12.60;;;9.60;;
8458;SDS011;4266;48.816;9.154;2023-08-30T00:35:34;11.00;;;9.80;;
8458;SDS011;4266;48.816;9.154;2023-08-30T00:38:00;10.73;;;9.70;;
8458;SDS011;4266;48.816;9.154;2023-08-30T00:40:26;8.67;;;7.97;;
8458;SDS011;4266;48.816;9.154;2023-08-30T00:42:52;9.87;;;8.63;;
8458;SDS011;4266;48.816;9.154;2023-08-30T00:45:17;9.50;;;8.80;;
8458;SDS011;4266;48.816;9.154;2023-08-30T00:47:43;9.97;;;9.17;;
8458;SDS011;4266;48.816;9.154;2023-08-30T00:50:09;9.80;;;8.93;;
8458;SDS011;4266;48.816;9.154;2023-08-30T00:52:35;10.60;;;9.70;;
8458;SDS011;4266;48.816;9.154;2023-08-30T00:55:01;9.33;;;8.63;;
8458;SDS011;4266;48.816;9.154;2023-08-30T00:57:27;9.27;;;8.67;;
8458;SDS011;4266;48.816;9.154;2023-08-30T00:59:53;9.83;;;9.03;;
8458;SDS011;4266;48.816;9.154;2023-08-30T01:02:18;9.37;;;8.60;;
8458;SDS011;4266;48.816;9.154;2023-08-30T01:04:45;9.47;;;8.77;;
8458;SDS011;4266;48.816;9.154;2023-08-30T01:07:11;9.40;;;8.00;;
8458;SDS011;4266;48.816;9.154;2023-08-30T01:09:37;8.87;;;8.23;;
8458;SDS011;4266;48.816;9.154;2023-08-30T01:12:10;8.43;;;7.83;;
8458;SDS011;4266;48.816;9.154;2023-08-30T01:14:37;10.10;;;9.30;;
8458;SDS011;4266;48.816;9.154;2023-08-30T01:17:01;10.57;;;9.23;;
8458;SDS011;4266;48.816;9.154;2023-08-30T01:19:39;10.07;;;8.87;;
8458;SDS011;4266;48.816;9.154;2023-08-30T01:22:09;9.83;;;9.10;;
8458;SDS011;4266;48.816;9.154;2023-08-30T01:24:37;10.33;;;9.33;;
8458;SDS011;4266;48.816;9.154;2023-08-30T01:27:07;10.40;;;9.50;;
8458;SDS011;4266;48.816;9.154;2023-08-30T01:29:35;9.83;;;8.77;;
8458;SDS011;4266;48.816;9.154;2023-08-30T01:32:02;10.70;;;9.90;;
8458;SDS011;4266;48.816;9.154;2023-08-30T01:34:28;10.70;;;9.90;;
8458;SDS011;4266;48.816;9.154;2023-08-30T01:36:54;10.20;;;9.20;;
8458;SDS011;4266;48.816;9.154;2023-08-30T01:39:20;10.10;;;9.23;;
8458;SDS011;4266;48.816;9.154;2023-08-30T01:41:46;10.17;;;9.27;;
8458;SDS011;4266;48.816;9.154;2023-08-30T01:44:11;10.60;;;9.70;;
8458;SDS011;4266;48.816;9.154;2023-08-30T01:46:37;10.53;;;9.83;;
8458;SDS011;4266;48.816;9.154;2023-08-30T01:49:02;11.10;;;10.03;;
8458;SDS011;4266;48.816;9.154;2023-08-30T01:51:29;11.13;;;10.17;;
8458;SDS011;4266;48.816;9.154;2023-08-30T01:53:55;11.93;;;11.03;;
8458;SDS011;4266;48.816;9.154;2023-08-30T01:56:20;11.83;;;10.57;;
8458;SDS011;4266;48.816;9.154;2023-08-30T01:58:46;13.63;;;10.87;;
8458;SDS011;4266;48.816;9.154;2023-08-30T02:01:12;13.20;;;10.17;;
8458;SDS011;4266;48.816;9.154;2023-08-30T02:03:37;11.77;;;10.57;;
8458;SDS011;4266;48.816;9.154;2023-08-30T02:06:08;11.07;;;9.97;;
8458;SDS011;4266;48.816;9.154;2023-08-30T02:08:35;11.90;;;9.83;;
8458;SDS011;4266;48.816;9.154;2023-08-30T02:11:00;11.23;;;10.13;;
8458;SDS011;4266;48.816;9.154;2023-08-30T02:13:25;10.40;;;9.57;;
8458;SDS011;4266;48.816;9.154;2023-08-30T02:15:50;10.67;;;9.77;;
8458;SDS011;4266;48.816;9.154;2023-08-30T02:18:16;9.70;;;8.90;;
8458;SDS011;4266;48.816;9.154;2023-08-30T02:20:42;10.73;;;9.63;;
8458;SDS011;4266;48.816;9.154;2023-08-30T02:23:09;10.47;;;9.53;;
8458;SDS011;4266;48.816;9.154;2023-08-30T02:25:34;11.07;;;10.10;;
8458;SDS011;4266;48.816;9.154;2023-08-30T02:28:00;11.73;;;10.67;;
8458;SDS011;4266;48.816;9.154;2023-08-30T02:30:25;10.77;;;9.63;;
8458;SDS011;4266;48.816;9.154;2023-08-30T02:32:51;10.57;;;9.57;;
8458;SDS011;4266;48.816;9.154;2023-08-30T02:35:17;10.67;;;9.57;;
8458;SDS011;4266;48.816;9.154;2023-08-30T02:37:43;10.80;;;9.90;;
8458;SDS011;4266;48.816;9.154;2023-08-30T02:40:09;9.97;;;9.17;;
8458;SDS011;4266;48.816;9.154;2023-08-30T02:42:36;10.50;;;9.63;;
8458;SDS011;4266;48.816;9.154;2023-08-30T02:45:02;10.33;;;9.50;;
8458;SDS011;4266;48.816;9.154;2023-08-30T02:47:28;10.73;;;9.30;;
8458;SDS011;4266;48.816;9.154;2023-08-30T02:49:54;10.33;;;8.53;;
8458;SDS011;4266;48.816;9.154;2023-08-30T02:52:20;11.33;;;9.47;;
8458;SDS011;4266;48.816;9.154;2023-08-30T02:54:47;10.27;;;9.27;;
8458;SDS011;4266;48.816;9.154;2023-08-30T02:57:12;12.27;;;11.10;;
8458;SDS011;4266;48.816;9.154;2023-08-30T02:59:38;13.57;;;11.60;;
8458;SDS011;4266;48.816;9.154;2023-08-30T03:02:04;17.93;;;11.93;;
8458;SDS011;4266;48.816;9.154;2023-08-30T03:04:31;13.00;;;11.80;;
8458;SDS011;4266;48.816;9.154;2023-08-30T03:06:56;14.23;;;12.77;;
8458;SDS011;4266;48.816;9.154;2023-08-30T03:09:23;15.03;;;12.30;;
8458;SDS011;4266;48.816;9.154;2023-08-30T03:11:49;15.03;;;12.90;;
8458;SDS011;4266;48.816;9.154;2023-08-30T03:14:15;13.63;;;12.00;;
8458;SDS011;4266;48.816;9.154;2023-08-30T03:16:40;14.00;;;12.27;;
8458;SDS011;4266;48.816;9.154;2023-08-30T03:19:06;14.33;;;12.93;;
8458;SDS011;4266;48.816;9.154;2023-08-30T03:21:32;14.60;;;13.10;;
8458;SDS011;4266;48.816;9.154;2023-08-30T03:23:57;12.80;;;11.50;;
8458;SDS011;4266;48.816;9.154;2023-08-30T03:26:23;13.70;;;10.73;;
8458;SDS011;4266;48.816;9.154;2023-08-30T03:28:49;14.93;;;11.40;;
8458;SDS011;4266;48.816;9.154;2023-08-30T03:31:15;13.20;;;10.37;;
8458;SDS011;4266;48.816;9.154;2023-08-30T03:33:41;11.17;;;9.97;;
8458;SDS011;4266;48.816;9.154;2023-08-30T03:36:07;12.33;;;10.47;;
8458;SDS011;4266;48.816;9.154;2023-08-30T03:38:33;10.53;;;9.67;;
8458;SDS011;4266;48.816;9.154;2023-08-30T03:40:58;14.80;;;9.80;;
8458;SDS011;4266;48.816;9.154;2023-08-30T03:43:24;13.43;;;9.33;;
8458;SDS011;4266;48.816;9.154;2023-08-30T03:45:50;10.60;;;9.60;;
8458;SDS011;4266;48.816;9.154;2023-08-30T03:48:17;10.73;;;9.63;;
8458;SDS011;4266;48.816;9.154;2023-08-30T03:50:43;10.33;;;9.50;;
8458;SDS011;4266;48.816;9.154;2023-08-30T03:53:08;11.10;;;10.00;;
8458;SDS011;4266;48.816;9.154;2023-08-30T03:55:35;10.73;;;9.83;;
8458;SDS011;4266;48.816;9.154;2023-08-30T03:58:00;11.60;;;9.57;;
8458;SDS011;4266;48.816;9.154;2023-08-30T04:00:26;10.37;;;9.27;;
8458;SDS011;4266;48.816;9.154;2023-08-30T04:02:52;9.87;;;9.07;;
8458;SDS011;4266;48.816;9.154;2023-08-30T04:05:18;9.57;;;8.67;;
8458;SDS011;4266;48.816;9.154;2023-08-30T04:07:44;10.67;;;9.23;;
8458;SDS011;4266;48.816;9.154;2023-08-30T04:10:10;9.93;;;9.03;;
8458;SDS011;4266;48.816;9.154;2023-08-30T04:12:36;9.10;;;8.40;;
8458;SDS011;4266;48.816;9.154;2023-08-30T04:15:02;10.33;;;9.40;;
8458;SDS011;4266;48.816;9.154;2023-08-30T04:17:28;10.10;;;9.30;;
8458;SDS011;4266;48.816;9.154;2023-08-30T04:19:54;9.77;;;9.07;;
8458;SDS011;4266;48.816;9.154;2023-08-30T04:22:21;9.80;;;9.10;;
8458;SDS011;4266;48.816;9.154;2023-08-30T04:24:48;10.20;;;9.20;;
8458;SDS011;4266;48.816;9.154;2023-08-30T04:27:13;13.37;;;10.17;;
8458;SDS011;4266;48.816;9.154;2023-08-30T04:29:39;14.90;;;9.60;;
8458;SDS011;4266;48.816;9.154;2023-08-30T04:32:05;10.47;;;9.43;;
8458;SDS011;4266;48.816;9.154;2023-08-30T04:34:31;13.33;;;10.27;;
8458;SDS011;4266;48.816;9.154;2023-08-30T04:36:57;10.70;;;9.70;;
8458;SDS011;4266;48.816;9.154;2023-08-30T04:39:24;10.23;;;9.23;;
8458;SDS011;4266;48.816;9.154;2023-08-30T04:41:50;10.40;;;9.60;;
8458;SDS011;4266;48.816;9.154;2023-08-30T04:44:16;10.67;;;9.67;;
8458;SDS011;4266;48.816;9.154;2023-08-30T04:46:43;12.33;;;9.73;;
8458;SDS011;4266;48.816;9.154;2023-08-30T04:49:09;10.97;;;9.97;;
8458;SDS011;4266;48.816;9.154;2023-08-30T04:51:35;13.43;;;9.37;;
8458;SDS011;4266;48.816;9.154;2023-08-30T04:54:00;10.10;;;9.37;;
8458;SDS011;4266;48.816;9.154;2023-08-30T04:56:26;10.90;;;9.93;;
8458;SDS011;4266;48.816;9.154;2023-08-30T04:58:52;11.17;;;10.17;;
8458;SDS011;4266;48.816;9.154;2023-08-30T05:01:17;10.20;;;9.20;;
8458;SDS011;4266;48.816;9.154;2023-08-30T05:03:44;10.87;;;9.80;;
8458;SDS011;4266;48.816;9.154;2023-08-30T05:06:09;10.93;;;9.63;;
8458;SDS011;4266;48.816;9.154;2023-08-30T05:08:35;10.80;;;9.70;;
8458;SDS011;4266;48.816;9.154;2023-08-30T05:11:01;10.20;;;9.30;;
8458;SDS011;4266;48.816;9.154;2023-08-30T05:13:27;10.80;;;9.80;;
8458;SDS011;4266;48.816;9.154;2023-08-30T05:15:53;10.10;;;9.20;;
8458;SDS011;4266;48.816;9.154;2023-08-30T05:18:19;11.27;;;10.17;;
8458;SDS011;4266;48.816;9.154;2023-08-30T05:20:44;10.50;;;9.70;;
8458;SDS011;4266;48.816;9.154;2023-08-30T05:23:10;10.30;;;9.53;;
8458;SDS011;4266;48.816;9.154;2023-08-30T05:25:35;10.23;;;9.43;;
8458;SDS011;4266;48.816;9.154;2023-08-30T05:28:01;11.13;;;9.97;;
8458;SDS011;4266;48.816;9.154;2023-08-30T05:30:27;13.90;;;10.83;;
8458;SDS011;4266;48.816;9.154;2023-08-30T05:32:52;13.40;;;10.40;;
8458;SDS011;4266;48.816;9.154;2023-08-30T05:35:18;10.33;;;9.43;;
8458;SDS011;4266;48.816;9.154;2023-08-30T05:37:44;15.87;;;10.00;;
8458;SDS011;4266;48.816;9.154;2023-08-30T05:40:10;9.73;;;9.03;;
8458;SDS011;4266;48.816;9.154;2023-08-30T05:42:36;11.60;;;9.37;;
8458;SDS011;4266;48.816;9.154;2023-08-30T05:45:02;10.30;;;9.37;;
8458;SDS011;4266;48.816;9.154;2023-08-30T05:47:29;10.87;;;9.83;;
8458;SDS011;4266;48.816;9.154;2023-08-30T05:49:55;9.33;;;8.47;;
8458;SDS011;4266;48.816;9.154;2023-08-30T05:52:20;10.13;;;9.27;;
8458;SDS011;4266;48.816;9.154;2023-08-30T05:54:46;9.50;;;8.80;;
8458;SDS011;4266;48.816;9.154;2023-08-30T05:57:12;9.70;;;8.70;;
8458;SDS011;4266;48.816;9.154;2023-08-30T05:59:37;9.33;;;8.60;;
8458;SDS011;4266;48.816;9.154;2023-08-30T06:02:04;9.43;;;8.63;;
8458;SDS011;4266;48.816;9.154;2023-08-30T06:04:29;9.60;;;8.90;;
8458;SDS011;4266;48.816;9.154;2023-08-30T06:06:55;10.27;;;9.27;;
8458;SDS011;4266;48.816;9.154;2023-08-30T06:09:21;9.73;;;8.93;;
8458;SDS011;4266;48.816;9.154;2023-08-30T06:11:46;9.13;;;8.43;;
8458;SDS011;4266;48.816;9.154;2023-08-30T06:14:12;9.43;;;8.63;;
8458;SDS011;4266;48.816;9.154;2023-08-30T06:16:38;12.00;;;8.50;;
8458;SDS011;4266;48.816;9.154;2023-08-30T06:19:04;8.77;;;8.07;;
8458;SDS011;4266;48.816;9.154;2023-08-30T06:21:30;9.50;;;8.70;;
8458;SDS011;4266;48.816;9.154;2023-08-30T06:23:56;9.47;;;8.67;;
8458;SDS011;4266;48.816;9.154;2023-08-30T06:26:22;9.43;;;8.00;;
8458;SDS011;4266;48.816;9.154;2023-08-30T06:28:49;8.50;;;7.70;;
8458;SDS011;4266;48.816;9.154;2023-08-30T06:31:15;7.73;;;7.03;;
8458;SDS011;4266;48.816;9.154;2023-08-30T06:33:40;7.80;;;6.97;;
8458;SDS011;4266;48.816;9.154;2023-08-30T06:36:06;7.60;;;7.10;;
8458;SDS011;4266;48.816;9.154;2023-08-30T06:38:32;7.57;;;7.00;;
8458;SDS011;4266;48.816;9.154;2023-08-30T06:40:58;7.37;;;6.77;;
8458;SDS011;4266;48.816;9.154;2023-08-30T06:43:23;6.87;;;6.47;;
8458;SDS011;4266;48.816;9.154;2023-08-30T06:45:49;8.80;;;6.80;;
8458;SDS011;4266;48.816;9.154;2023-08-30T06:48:14;7.07;;;6.07;;
8458;SDS011;4266;48.816;9.154;2023-08-30T06:50:41;7.03;;;6.53;;
8458;SDS011;4266;48.816;9.154;2023-08-30T06:53:07;7.20;;;6.60;;
8458;SDS011;4266;48.816;9.154;2023-08-30T06:55:32;8.00;;;7.30;;
8458;SDS011;4266;48.816;9.154;2023-08-30T06:58:05;7.77;;;7.07;;
8458;SDS011;4266;48.816;9.154;2023-08-30T07:00:32;7.20;;;6.50;;
8458;SDS011;4266;48.816;9.154;2023-08-30T07:02:58;6.67;;;5.63;;
8458;SDS011;4266;48.816;9.154;2023-08-30T07:05:24;6.60;;;6.00;;
8458;SDS011;4266;48.816;9.154;2023-08-30T07:07:50;6.30;;;5.70;;
8458;SDS011;4266;48.816;9.154;2023-08-30T07:10:15;6.67;;;6.03;;
8458;SDS011;4266;48.816;9.154;2023-08-30T07:12:41;7.00;;;6.30;;
8458;SDS011;4266;48.816;9.154;2023-08-30T07:15:08;7.80;;;7.10;;
8458;SDS011;4266;48.816;9.154;2023-08-30T07:17:34;8.30;;;6.97;;
8458;SDS011;4266;48.816;9.154;2023-08-30T07:20:00;7.73;;;6.70;;
8458;SDS011;4266;48.816;9.154;2023-08-30T07:22:26;7.27;;;6.77;;
8458;SDS011;4266;48.816;9.154;2023-08-30T07:24:51;9.20;;;6.70;;
8458;SDS011;4266;48.816;9.154;2023-08-30T07:27:18;6.57;;;6.10;;
8458;SDS011;4266;48.816;9.154;2023-08-30T07:29:43;7.20;;;6.50;;
8458;SDS011;4266;48.816;9.154;2023-08-30T07:32:09;7.43;;;6.90;;
8458;SDS011;4266;48.816;9.154;2023-08-30T07:34:35;9.80;;;6.57;;
8458;SDS011;4266;48.816;9.154;2023-08-30T07:37:01;7.03;;;6.37;;
8458;SDS011;4266;48.816;9.154;2023-08-30T07:39:28;10.30;;;6.77;;
8458;SDS011;4266;48.816;9.154;2023-08-30T07:41:53;7.43;;;6.67;;
8458;SDS011;4266;48.816;9.154;2023-08-30T07:44:19;7.43;;;6.63;;
8458;SDS011;4266;48.816;9.154;2023-08-30T07:46:45;10.00;;;6.40;;
8458;SDS011;4266;48.816;9.154;2023-08-30T07:49:11;7.20;;;6.60;;
8458;SDS011;4266;48.816;9.154;2023-08-30T07:51:37;7.60;;;6.77;;
8458;SDS011;4266;48.816;9.154;2023-08-30T07:54:03;8.40;;;6.20;;
8458;SDS011;4266;48.816;9.154;2023-08-30T07:56:29;6.47;;;5.87;;
8458;SDS011;4266;48.816;9.154;2023-08-30T07:58:55;7.43;;;6.00;;
8458;SDS011;4266;48.816;9.154;2023-08-30T08:01:20;7.00;;;6.27;;
8458;SDS011;4266;48.816;9.154;2023-08-30T08:03:46;9.80;;;6.63;;
8458;SDS011;4266;48.816;9.154;2023-08-30T08:06:12;6.60;;;6.00;;
8458;SDS011;4266;48.816;9.154;2023-08-30T08:08:37;8.77;;;6.63;;
8458;SDS011;4266;48.816;9.154;2023-08-30T08:11:03;7.30;;;6.60;;
8458;SDS011;4266;48.816;9.154;2023-08-30T08:13:29;6.87;;;6.23;;
8458;SDS011;4266;48.816;9.154;2023-08-30T08:15:56;7.30;;;6.60;;
8458;SDS011;4266;48.816;9.154;2023-08-30T08:18:21;7.27;;;6.67;;
8458;SDS011;4266;48.816;9.154;2023-08-30T08:20:47;8.00;;;6.40;;
8458;SDS011;4266;48.816;9.154;2023-08-30T08:23:12;6.90;;;6.40;;
8458;SDS011;4266;48.816;9.154;2023-08-30T08:25:39;6.90;;;6.20;;
8458;SDS011;4266;48.816;9.154;2023-08-30T08:28:05;7.27;;;6.67;;
8458;SDS011;4266;48.816;9.154;2023-08-30T08:30:30;10.07;;;6.40;;
8458;SDS011;4266;48.816;9.154;2023-08-30T08:32:57;6.50;;;5.87;;
8458;SDS011;4266;48.816;9.154;2023-08-30T08:35:22;6.33;;;5.77;;
8458;SDS011;4266;48.816;9.154;2023-08-30T08:37:48;11.88;;;5.95;;
8458;SDS011;4266;48.816;9.154;2023-08-30T08:40:15;8.50;;;5.45;;
8458;SDS011;4266;48.816;9.154;2023-08-30T08:42:40;6.35;;;5.07;;
8458;SDS011;4266;48.816;9.154;2023-08-30T08:45:06;6.87;;;5.07;;
8458;SDS011;4266;48.816;9.154;2023-08-30T08:47:32;5.60;;;4.47;;
8458;SDS011;4266;48.816;9.154;2023-08-30T08:49:58;5.10;;;4.57;;
8458;SDS011;4266;48.816;9.154;2023-08-30T08:52:24;4.87;;;4.43;;
8458;SDS011;4266;48.816;9.154;2023-08-30T08:54:49;5.15;;;4.28;;
8458;SDS011;4266;48.816;9.154;2023-08-30T08:57:15;5.45;;;4.90;;
8458;SDS011;4266;48.816;9.154;2023-08-30T08:59:41;4.68;;;4.37;;
8458;SDS011;4266;48.816;9.154;2023-08-30T09:02:06;6.55;;;4.60;;
8458;SDS011;4266;48.816;9.154;2023-08-30T09:04:32;6.40;;;4.32;;
8458;SDS011;4266;48.816;9.154;2023-08-30T09:06:58;5.20;;;4.25;;
8458;SDS011;4266;48.816;9.154;2023-08-30T09:09:24;4.30;;;4.00;;
8458;SDS011;4266;48.816;9.154;2023-08-30T09:11:50;4.15;;;3.85;;
8458;SDS011;4266;48.816;9.154;2023-08-30T09:14:15;4.30;;;3.50;;
8458;SDS011;4266;48.816;9.154;2023-08-30T09:16:42;4.07;;;3.60;;
8458;SDS011;4266;48.816;9.154;2023-08-30T09:19:07;3.50;;;3.30;;
8458;SDS011;4266;48.816;9.154;2023-08-30T09:21:33;4.28;;;3.28;;
8458;SDS011;4266;48.816;9.154;2023-08-30T09:24:00;3.45;;;3.15;;
8458;SDS011;4266;48.816;9.154;2023-08-30T09:26:26;3.03;;;2.83;;
8458;SDS011;4266;48.816;9.154;2023-08-30T09:28:52;3.10;;;2.90;;
8458;SDS011;4266;48.816;9.154;2023-08-30T09:31:18;4.10;;;3.40;;
8458;SDS011;4266;48.816;9.154;2023-08-30T09:33:44;5.15;;;3.10;;
8458;SDS011;4266;48.816;9.154;2023-08-30T09:36:10;3.47;;;2.87;;
8458;SDS011;4266;48.816;9.154;2023-08-30T09:38:36;3.67;;;3.20;;
8458;SDS011;4266;48.816;9.154;2023-08-30T09:41:03;3.30;;;3.10;;
8458;SDS011;4266;48.816;9.154;2023-08-30T09:43:28;4.03;;;3.37;;
8458;SDS011;4266;48.816;9.154;2023-08-30T09:45:54;3.78;;;3.05;;
8458;SDS011;4266;48.816;9.154;2023-08-30T09:48:21;5.60;;;3.00;;
8458;SDS011;4266;48.816;9.154;2023-08-30T09:50:47;3.10;;;2.90;;
8458;SDS011;4266;48.816;9.154;2023-08-30T09:53:12;3.58;;;3.15;;
8458;SDS011;4266;48.816;9.154;2023-08-30T09:55:38;3.00;;;2.80;;
8458;SDS011;4266;48.816;9.154;2023-08-30T09:58:04;3.30;;;3.10;;
8458;SDS011;4266;48.816;9.154;2023-08-30T10:00:30;3.10;;;2.67;;
8458;SDS011;4266;48.816;9.154;2023-08-30T10:02:57;3.55;;;3.00;;
8458;SDS011;4266;48.816;9.154;2023-08-30T10:05:22;2.92;;;2.67;;
8458;SDS011;4266;48.816;9.154;2023-08-30T10:07:48;2.80;;;2.60;;
8458;SDS011;4266;48.816;9.154;2023-08-30T10:10:13;2.40;;;2.12;;
8458;SDS011;4266;48.816;9.154;2023-08-30T10:12:40;2.58;;;2.37;;
8458;SDS011;4266;48.816;9.154;2023-08-30T10:15:06;6.25;;;2.53;;
8458;SDS011;4266;48.816;9.154;2023-08-30T10:17:33;2.60;;;2.40;;
8458;SDS011;4266;48.816;9.154;2023-08-30T10:20:01;3.92;;;2.72;;
8458;SDS011;4266;48.816;9.154;2023-08-30T10:22:25;3.78;;;2.30;;
8458;SDS011;4266;48.816;9.154;2023-08-30T10:24:52;2.55;;;2.42;;
8458;SDS011;4266;48.816;9.154;2023-08-30T10:27:18;3.03;;;2.78;;
8458;SDS011;4266;48.816;9.154;2023-08-30T10:29:44;3.72;;;2.58;;
8458;SDS011;4266;48.816;9.154;2023-08-30T10:32:10;5.80;;;2.17;;
8458;SDS011;4266;48.816;9.154;2023-08-30T10:34:36;2.30;;;2.10;;
8458;SDS011;4266;48.816;9.154;2023-08-30T10:37:02;3.33;;;2.15;;
8458;SDS011;4266;48.816;9.154;2023-08-30T10:39:34;2.50;;;2.30;;
8458;SDS011;4266;48.816;9.154;2023-08-30T10:41:59;2.40;;;2.30;;
8458;SDS011;4266;48.816;9.154;2023-08-30T10:44:25;2.83;;;2.62;;
8458;SDS011;4266;48.816;9.154;2023-08-30T10:46:52;2.15;;;2.05;;
8458;SDS011;4266;48.816;9.154;2023-08-30T10:49:18;3.08;;;2.33;;
8458;SDS011;4266;48.816;9.154;2023-08-30T10:51:43;2.22;;;2.10;;
8458;SDS011;4266;48.816;9.154;2023-08-30T10:54:11;2.50;;;2.30;;
8458;SDS011;4266;48.816;9.154;2023-08-30T10:59:17;3.42;;;2.42;;
8458;SDS011;4266;48.816;9.154;2023-08-30T11:01:43;2.55;;;2.45;;
8458;SDS011;4266;48.816;9.154;2023-08-30T11:04:08;2.53;;;2.33;;
8458;SDS011;4266;48.816;9.154;2023-08-30T11:06:34;2.40;;;2.20;;
8458;SDS011;4266;48.816;9.154;2023-08-30T11:09:00;2.85;;;2.58;;
8458;SDS011;4266;48.816;9.154;2023-08-30T11:11:25;3.03;;;2.83;;
8458;SDS011;4266;48.816;9.154;2023-08-30T11:13:51;3.12;;;2.83;;
8458;SDS011;4266;48.816;9.154;2023-08-30T11:16:21;2.55;;;2.45;;
8458;SDS011;4266;48.816;9.154;2023-08-30T11:18:46;3.53;;;2.25;;
8458;SDS011;4266;48.816;9.154;2023-08-30T11:21:12;6.85;;;2.70;;
8458;SDS011;4266;48.816;9.154;2023-08-30T11:23:38;2.62;;;2.37;;
8458;SDS011;4266;48.816;9.154;2023-08-30T11:26:04;7.47;;;3.00;;
8458;SDS011;4266;48.816;9.154;2023-08-30T11:28:30;3.37;;;3.17;;
8458;SDS011;4266;48.816;9.154;2023-08-30T11:30:57;4.12;;;3.22;;
8458;SDS011;4266;48.816;9.154;2023-08-30T11:33:22;5.35;;;3.25;;
8458;SDS011;4266;48.816;9.154;2023-08-30T11:35:49;3.20;;;3.00;;
8458;SDS011;4266;48.816;9.154;2023-08-30T11:38:14;7.57;;;3.37;;
8458;SDS011;4266;48.816;9.154;2023-08-30T11:40:39;3.75;;;3.45;;
8458;SDS011;4266;48.816;9.154;2023-08-30T11:45:56;6.35;;;4.75;;
8458;SDS011;4266;48.816;9.154;2023-08-30T11:48:22;5.87;;;4.65;;
8458;SDS011;4266;48.816;9.154;2023-08-30T11:50:48;5.18;;;4.78;;
8458;SDS011;4266;48.816;9.154;2023-08-30T11:53:16;4.72;;;4.32;;
8458;SDS011;4266;48.816;9.154;2023-08-30T11:55:41;4.75;;;4.43;;
8458;SDS011;4266;48.816;9.154;2023-08-30T11:58:08;5.60;;;4.68;;
8458;SDS011;4266;48.816;9.154;2023-08-30T12:00:33;4.65;;;4.35;;
8458;SDS011;4266;48.816;9.154;2023-08-30T12:02:58;5.20;;;4.80;;
8458;SDS011;4266;48.816;9.154;2023-08-30T12:05:25;5.05;;;4.65;;
8458;SDS011;4266;48.816;9.154;2023-08-30T12:07:50;5.07;;;4.78;;
8458;SDS011;4266;48.816;9.154;2023-08-30T12:10:17;4.97;;;4.47;;
8458;SDS011;4266;48.816;9.154;2023-08-30T12:12:44;4.70;;;4.40;;
8458;SDS011;4266;48.816;9.154;2023-08-30T12:15:10;4.72;;;4.43;;
8458;SDS011;4266;48.816;9.154;2023-08-30T12:17:36;4.93;;;4.53;;
8458;SDS011;4266;48.816;9.154;2023-08-30T12:20:02;5.12;;;4.72;;
8458;SDS011;4266;48.816;9.154;2023-08-30T12:22:35;5.00;;;4.60;;
8458;SDS011;4266;48.816;9.154;2023-08-30T12:25:22;4.82;;;4.35;;
8458;SDS011;4266;48.816;9.154;2023-08-30T12:27:48;4.30;;;4.10;;
8458;SDS011;4266;48.816;9.154;2023-08-30T12:30:14;4.68;;;4.30;;
8458;SDS011;4266;48.816;9.154;2023-08-30T12:32:40;4.85;;;4.45;;
8458;SDS011;4266;48.816;9.154;2023-08-30T12:35:06;3.80;;;3.60;;
8458;SDS011;4266;48.816;9.154;2023-08-30T12:37:33;5.20;;;3.70;;
8458;SDS011;4266;48.816;9.154;2023-08-30T12:39:58;4.10;;;3.78;;
8458;SDS011;4266;48.816;9.154;2023-08-30T12:42:24;4.05;;;3.80;;
8458;SDS011;4266;48.816;9.154;2023-08-30T12:44:50;4.12;;;3.70;;
8458;SDS011;4266;48.816;9.154;2023-08-30T12:47:15;4.72;;;4.43;;
8458;SDS011;4266;48.816;9.154;2023-08-30T12:49:41;4.20;;;3.90;;
8458;SDS011;4266;48.816;9.154;2023-08-30T12:52:07;4.15;;;3.95;;
8458;SDS011;4266;48.816;9.154;2023-08-30T12:54:33;4.07;;;3.70;;
8458;SDS011;4266;48.816;9.154;2023-08-30T12:56:59;4.20;;;3.85;;
8458;SDS011;4266;48.816;9.154;2023-08-30T12:59:25;3.92;;;3.62;;
8458;SDS011;4266;48.816;9.154;2023-08-30T13:01:50;4.37;;;3.97;;
8458;SDS011;4266;48.816;9.154;2023-08-30T13:04:16;3.92;;;3.62;;
8458;SDS011;4266;48.816;9.154;2023-08-30T13:06:42;3.70;;;3.50;;
8458;SDS011;4266;48.816;9.154;2023-08-30T13:09:08;4.28;;;3.30;;
8458;SDS011;4266;48.816;9.154;2023-08-30T13:11:34;3.50;;;3.20;;
8458;SDS011;4266;48.816;9.154;2023-08-30T13:13:59;5.80;;;3.33;;
8458;SDS011;4266;48.816;9.154;2023-08-30T13:16:25;3.05;;;2.85;;
8458;SDS011;4266;48.816;9.154;2023-08-30T13:18:51;3.10;;;2.90;;
8458;SDS011;4266;48.816;9.154;2023-08-30T13:21:17;3.80;;;3.05;;
8458;SDS011;4266;48.816;9.154;2023-08-30T13:23:43;3.40;;;3.20;;
8458;SDS011;4266;48.816;9.154;2023-08-30T13:26:09;3.70;;;3.05;;
8458;SDS011;4266;48.816;9.154;2023-08-30T13:28:35;3.40;;;3.17;;
8458;SDS011;4266;48.816;9.154;2023-08-30T13:31:01;3.60;;;3.40;;
8458;SDS011;4266;48.816;9.154;2023-08-30T13:33:27;4.00;;;3.80;;
8458;SDS011;4266;48.816;9.154;2023-08-30T13:35:53;4.07;;;3.87;;
8458;SDS011;4266;48.816;9.154;2023-08-30T13:38:18;3.83;;;3.53;;
8458;SDS011;4266;48.816;9.154;2023-08-30T13:40:44;3.20;;;3.05;;
8458;SDS011;4266;48.816;9.154;2023-08-30T13:43:10;3.83;;;3.53;;
8458;SDS011;4266;48.816;9.154;2023-08-30T13:45:36;3.65;;;3.37;;
8458;SDS011;4266;48.816;9.154;2023-08-30T13:48:02;4.10;;;3.80;;
8458;SDS011;4266;48.816;9.154;2023-08-30T13:50:29;3.33;;;3.12;;
8458;SDS011;4266;48.816;9.154;2023-08-30T13:52:54;3.90;;;3.60;;
8458;SDS011;4266;48.816;9.154;2023-08-30T13:55:20;3.45;;;3.25;;
8458;SDS011;4266;48.816;9.154;2023-08-30T13:57:46;3.15;;;2.95;;
8458;SDS011;4266;48.816;9.154;2023-08-30T14:00:13;3.28;;;3.08;;
8458;SDS011;4266;48.816;9.154;2023-08-30T14:02:39;3.53;;;3.33;;
8458;SDS011;4266;48.816;9.154;2023-08-30T14:05:06;3.62;;;3.33;;
8458;SDS011;4266;48.816;9.154;2023-08-30T14:07:32;3.28;;;3.08;;
8458;SDS011;4266;48.816;9.154;2023-08-30T14:09:58;3.90;;;3.28;;
8458;SDS011;4266;48.816;9.154;2023-08-30T14:12:25;3.22;;;3.03;;
8458;SDS011;4266;48.816;9.154;2023-08-30T14:14:51;3.75;;;3.45;;
8458;SDS011;4266;48.816;9.154;2023-08-30T14:17:17;3.55;;;3.35;;
8458;SDS011;4266;48.816;9.154;2023-08-30T14:19:42;3.50;;;3.20;;
8458;SDS011;4266;48.816;9.154;2023-08-30T14:22:09;3.42;;;3.12;;
8458;SDS011;4266;48.816;9.154;2023-08-30T14:24:35;3.47;;;3.17;;
8458;SDS011;4266;48.816;9.154;2023-08-30T14:27:01;4.18;;;3.42;;
8458;SDS011;4266;48.816;9.154;2023-08-30T14:29:27;3.50;;;3.28;;
8458;SDS011;4266;48.816;9.154;2023-08-30T14:31:52;3.40;;;3.10;;
8458;SDS011;4266;48.816;9.154;2023-08-30T14:34:20;3.65;;;3.35;;
8458;SDS011;4266;48.816;9.154;2023-08-30T14:36:45;6.07;;;3.42;;
8458;SDS011;4266;48.816;9.154;2023-08-30T14:39:11;3.35;;;3.15;;
8458;SDS011;4266;48.816;9.154;2023-08-30T14:41:37;3.30;;;3.10;;
8458;SDS011;4266;48.816;9.154;2023-08-30T14:44:03;3.30;;;3.10;;
8458;SDS011;4266;48.816;9.154;2023-08-30T14:46:31;5.45;;;3.00;;
8458;SDS011;4266;48.816;9.154;2023-08-30T14:48:56;3.75;;;3.45;;
8458;SDS011;4266;48.816;9.154;2023-08-30T14:51:22;4.22;;;3.60;;
8458;SDS011;4266;48.816;9.154;2023-08-30T14:53:48;3.67;;;3.37;;
8458;SDS011;4266;48.816;9.154;2023-08-30T14:56:15;4.37;;;3.87;;
8458;SDS011;4266;48.816;9.154;2023-08-30T14:58:41;3.55;;;3.35;;
8458;SDS011;4266;48.816;9.154;2023-08-30T15:01:07;4.78;;;3.28;;
8458;SDS011;4266;48.816;9.154;2023-08-30T15:03:33;3.62;;;3.40;;
8458;SDS011;4266;48.816;9.154;2023-08-30T15:06:00;3.70;;;3.40;;
8458;SDS011;4266;48.816;9.154;2023-08-30T15:08:26;4.78;;;3.50;;